sensor_id;sensor_type;location;lat;lon;timestamp;P1;durP1;ratioP1;P2;durP2;ratioP2
21213;SDS011;10764;50.850;2.904;2023-04-03T00:02:02;3.20;;;1.63;;
21213;SDS011;10764;50.850;2.904;2023-04-03T00:04:29;2.78;;;1.60;;
21213;SDS011;10764;50.850;2.904;2023-04-03T00:06:56;2.10;;;1.50;;
21213;SDS011;10764;50.850;2.904;2023-04-03T00:09:23;2.10;;;1.50;;
21213;SDS011;10764;50.850;2.904;2023-04-03T00:11:50;2.35;;;1.80;;
21213;SDS011;10764;50.850;2.904;2023-04-03T00:14:17;3.00;;;1.33;;
21213;SDS011;10764;50.850;2.904;2023-04-03T00:16:44;3.33;;;1.60;;
21213;SDS011;10764;50.850;2.904;2023-04-03T00:19:11;2.15;;;1.55;;
21213;SDS011;10764;50.850;2.904;2023-04-03T00:21:38;1.95;;;1.40;;
21213;SDS011;10764;50.850;2.904;2023-04-03T00:24:06;1.88;;;1.40;;
21213;SDS011;10764;50.850;2.904;2023-04-03T00:26:33;2.20;;;1.55;;
21213;SDS011;10764;50.850;2.904;2023-04-03T00:29:00;1.92;;;1.40;;
21213;SDS011;10764;50.850;2.904;2023-04-03T00:31:26;1.60;;;1.40;;
21213;SDS011;10764;50.850;2.904;2023-04-03T00:33:53;2.42;;;1.50;;
21213;SDS011;10764;50.850;2.904;2023-04-03T00:36:21;1.90;;;1.50;;
21213;SDS011;10764;50.850;2.904;2023-04-03T00:38:48;2.72;;;1.48;;
21213;SDS011;10764;50.850;2.904;2023-04-03T00:41:15;2.40;;;1.50;;
21213;SDS011;10764;50.850;2.904;2023-04-03T00:43:43;2.47;;;1.67;;
21213;SDS011;10764;50.850;2.904;2023-04-03T00:46:10;1.98;;;1.50;;
21213;SDS011;10764;50.850;2.904;2023-04-03T00:48:39;2.80;;;1.80;;
21213;SDS011;10764;50.850;2.904;2023-04-03T00:51:11;3.07;;;1.60;;
21213;SDS011;10764;50.850;2.904;2023-04-03T00:53:50;4.40;;;1.90;;
21213;SDS011;10764;50.850;2.904;2023-04-03T00:56:24;2.10;;;1.40;;
21213;SDS011;10764;50.850;2.904;2023-04-03T00:59:02;1.83;;;1.42;;
21213;SDS011;10764;50.850;2.904;2023-04-03T01:01:34;2.07;;;1.53;;
21213;SDS011;10764;50.850;2.904;2023-04-03T01:04:01;2.35;;;1.40;;
21213;SDS011;10764;50.850;2.904;2023-04-03T01:06:31;2.35;;;1.42;;
21213;SDS011;10764;50.850;2.904;2023-04-03T01:09:06;2.33;;;1.73;;
21213;SDS011;10764;50.850;2.904;2023-04-03T01:11:33;1.75;;;1.50;;
21213;SDS011;10764;50.850;2.904;2023-04-03T01:14:00;1.75;;;1.35;;
21213;SDS011;10764;50.850;2.904;2023-04-03T01:16:28;2.42;;;1.70;;
21213;SDS011;10764;50.850;2.904;2023-04-03T01:18:58;2.85;;;1.45;;
21213;SDS011;10764;50.850;2.904;2023-04-03T01:24:39;3.13;;;1.93;;
21213;SDS011;10764;50.850;2.904;2023-04-03T01:27:09;2.63;;;1.45;;
21213;SDS011;10764;50.850;2.904;2023-04-03T01:29:37;2.47;;;1.70;;
21213;SDS011;10764;50.850;2.904;2023-04-03T01:32:05;2.30;;;1.70;;
21213;SDS011;10764;50.850;2.904;2023-04-03T01:34:32;3.67;;;1.70;;
21213;SDS011;10764;50.850;2.904;2023-04-03T01:36:59;2.50;;;1.50;;
21213;SDS011;10764;50.850;2.904;2023-04-03T01:39:26;2.85;;;1.75;;
21213;SDS011;10764;50.850;2.904;2023-04-03T01:41:53;2.85;;;1.60;;
21213;SDS011;10764;50.850;2.904;2023-04-03T01:44:28;2.92;;;1.80;;
21213;SDS011;10764;50.850;2.904;2023-04-03T01:46:55;2.45;;;1.60;;
21213;SDS011;10764;50.850;2.904;2023-04-03T01:49:24;3.13;;;1.63;;
21213;SDS011;10764;50.850;2.904;2023-04-03T01:51:50;3.00;;;1.77;;
21213;SDS011;10764;50.850;2.904;2023-04-03T01:54:17;2.03;;;1.70;;
21213;SDS011;10764;50.850;2.904;2023-04-03T01:56:44;1.92;;;1.52;;
21213;SDS011;10764;50.850;2.904;2023-04-03T01:59:12;2.22;;;1.55;;
21213;SDS011;10764;50.850;2.904;2023-04-03T02:01:38;2.95;;;1.80;;
21213;SDS011;10764;50.850;2.904;2023-04-03T02:04:06;2.40;;;1.50;;
21213;SDS011;10764;50.850;2.904;2023-04-03T02:06:33;2.72;;;1.70;;
21213;SDS011;10764;50.850;2.904;2023-04-03T02:09:01;2.35;;;1.52;;
21213;SDS011;10764;50.850;2.904;2023-04-03T02:11:29;3.30;;;1.60;;
21213;SDS011;10764;50.850;2.904;2023-04-03T02:13:56;2.83;;;1.60;;
21213;SDS011;10764;50.850;2.904;2023-04-03T02:16:23;1.92;;;1.50;;
21213;SDS011;10764;50.850;2.904;2023-04-03T02:18:51;2.45;;;1.77;;
21213;SDS011;10764;50.850;2.904;2023-04-03T02:21:18;2.72;;;1.50;;
21213;SDS011;10764;50.850;2.904;2023-04-03T02:23:44;2.38;;;1.50;;
21213;SDS011;10764;50.850;2.904;2023-04-03T02:26:12;3.20;;;1.70;;
21213;SDS011;10764;50.850;2.904;2023-04-03T02:28:40;2.40;;;1.50;;
21213;SDS011;10764;50.850;2.904;2023-04-03T02:31:07;1.85;;;1.40;;
21213;SDS011;10764;50.850;2.904;2023-04-03T02:33:37;2.17;;;1.55;;
21213;SDS011;10764;50.850;2.904;2023-04-03T02:36:06;2.22;;;1.60;;
21213;SDS011;10764;50.850;2.904;2023-04-03T02:38:34;2.23;;;1.60;;
21213;SDS011;10764;50.850;2.904;2023-04-03T02:41:06;1.90;;;1.33;;
21213;SDS011;10764;50.850;2.904;2023-04-03T02:43:34;2.25;;;1.55;;
21213;SDS011;10764;50.850;2.904;2023-04-03T02:46:03;1.92;;;1.40;;
21213;SDS011;10764;50.850;2.904;2023-04-03T02:48:31;2.78;;;1.63;;
21213;SDS011;10764;50.850;2.904;2023-04-03T02:50:58;2.13;;;1.40;;
21213;SDS011;10764;50.850;2.904;2023-04-03T02:53:25;2.47;;;1.57;;
21213;SDS011;10764;50.850;2.904;2023-04-03T02:55:52;3.50;;;1.52;;
21213;SDS011;10764;50.850;2.904;2023-04-03T02:58:19;2.30;;;1.55;;
21213;SDS011;10764;50.850;2.904;2023-04-03T03:00:46;2.00;;;1.30;;
21213;SDS011;10764;50.850;2.904;2023-04-03T03:03:13;1.92;;;1.40;;
21213;SDS011;10764;50.850;2.904;2023-04-03T03:05:41;1.83;;;1.35;;
21213;SDS011;10764;50.850;2.904;2023-04-03T03:08:07;2.17;;;1.27;;
21213;SDS011;10764;50.850;2.904;2023-04-03T03:10:34;3.70;;;1.65;;
21213;SDS011;10764;50.850;2.904;2023-04-03T03:13:01;2.17;;;1.50;;
21213;SDS011;10764;50.850;2.904;2023-04-03T03:15:28;2.73;;;1.60;;
21213;SDS011;10764;50.850;2.904;2023-04-03T03:17:55;3.03;;;1.30;;
21213;SDS011;10764;50.850;2.904;2023-04-03T03:20:22;2.33;;;1.30;;
21213;SDS011;10764;50.850;2.904;2023-04-03T03:22:49;2.00;;;1.42;;
21213;SDS011;10764;50.850;2.904;2023-04-03T03:25:17;2.75;;;1.25;;
21213;SDS011;10764;50.850;2.904;2023-04-03T03:27:44;3.70;;;1.40;;
21213;SDS011;10764;50.850;2.904;2023-04-03T03:30:11;2.77;;;1.40;;
21213;SDS011;10764;50.850;2.904;2023-04-03T03:32:38;2.10;;;1.40;;
21213;SDS011;10764;50.850;2.904;2023-04-03T03:35:05;1.65;;;1.25;;
21213;SDS011;10764;50.850;2.904;2023-04-03T03:37:32;1.90;;;1.30;;
21213;SDS011;10764;50.850;2.904;2023-04-03T03:39:59;1.75;;;1.30;;
21213;SDS011;10764;50.850;2.904;2023-04-03T03:42:26;2.03;;;1.40;;
21213;SDS011;10764;50.850;2.904;2023-04-03T03:44:54;1.58;;;1.20;;
21213;SDS011;10764;50.850;2.904;2023-04-03T03:47:21;1.88;;;1.30;;
21213;SDS011;10764;50.850;2.904;2023-04-03T03:49:48;2.15;;;1.27;;
21213;SDS011;10764;50.850;2.904;2023-04-03T03:52:15;1.92;;;1.48;;
21213;SDS011;10764;50.850;2.904;2023-04-03T03:54:42;1.77;;;1.30;;
21213;SDS011;10764;50.850;2.904;2023-04-03T03:57:09;2.03;;;1.30;;
21213;SDS011;10764;50.850;2.904;2023-04-03T03:59:36;3.22;;;1.30;;
21213;SDS011;10764;50.850;2.904;2023-04-03T04:02:04;2.28;;;1.40;;
21213;SDS011;10764;50.850;2.904;2023-04-03T04:04:31;1.50;;;1.20;;
21213;SDS011;10764;50.850;2.904;2023-04-03T04:06:58;1.80;;;1.20;;
21213;SDS011;10764;50.850;2.904;2023-04-03T04:09:27;3.33;;;1.38;;
21213;SDS011;10764;50.850;2.904;2023-04-03T04:11:54;2.90;;;1.05;;
21213;SDS011;10764;50.850;2.904;2023-04-03T04:14:21;2.00;;;1.20;;
21213;SDS011;10764;50.850;2.904;2023-04-03T04:16:49;4.28;;;1.60;;
21213;SDS011;10764;50.850;2.904;2023-04-03T04:19:22;2.13;;;1.25;;
21213;SDS011;10764;50.850;2.904;2023-04-03T04:21:49;2.60;;;1.30;;
21213;SDS011;10764;50.850;2.904;2023-04-03T04:24:16;2.85;;;1.30;;
21213;SDS011;10764;50.850;2.904;2023-04-03T04:26:44;2.17;;;1.30;;
21213;SDS011;10764;50.850;2.904;2023-04-03T04:29:12;1.57;;;1.20;;
21213;SDS011;10764;50.850;2.904;2023-04-03T04:31:39;1.80;;;1.30;;
21213;SDS011;10764;50.850;2.904;2023-04-03T04:34:06;1.80;;;1.10;;
21213;SDS011;10764;50.850;2.904;2023-04-03T04:36:35;2.25;;;1.20;;
21213;SDS011;10764;50.850;2.904;2023-04-03T04:39:02;1.70;;;1.20;;
21213;SDS011;10764;50.850;2.904;2023-04-03T04:41:28;2.95;;;1.27;;
21213;SDS011;10764;50.850;2.904;2023-04-03T04:43:55;1.55;;;1.20;;
21213;SDS011;10764;50.850;2.904;2023-04-03T04:46:23;1.77;;;1.10;;
21213;SDS011;10764;50.850;2.904;2023-04-03T04:48:54;1.77;;;1.15;;
21213;SDS011;10764;50.850;2.904;2023-04-03T04:51:23;1.95;;;1.17;;
21213;SDS011;10764;50.850;2.904;2023-04-03T04:53:52;1.65;;;1.10;;
21213;SDS011;10764;50.850;2.904;2023-04-03T04:56:21;2.53;;;1.30;;
21213;SDS011;10764;50.850;2.904;2023-04-03T04:58:48;1.92;;;1.10;;
21213;SDS011;10764;50.850;2.904;2023-04-03T05:01:17;2.08;;;1.20;;
21213;SDS011;10764;50.850;2.904;2023-04-03T05:03:56;1.50;;;1.10;;
21213;SDS011;10764;50.850;2.904;2023-04-03T05:06:24;1.73;;;1.00;;
21213;SDS011;10764;50.850;2.904;2023-04-03T05:08:52;2.17;;;1.00;;
21213;SDS011;10764;50.850;2.904;2023-04-03T05:11:20;1.88;;;1.33;;
21213;SDS011;10764;50.850;2.904;2023-04-03T05:13:50;1.40;;;1.05;;
21213;SDS011;10764;50.850;2.904;2023-04-03T05:16:17;1.55;;;1.00;;
21213;SDS011;10764;50.850;2.904;2023-04-03T05:18:46;1.25;;;1.10;;
21213;SDS011;10764;50.850;2.904;2023-04-03T05:21:18;1.25;;;0.95;;
21213;SDS011;10764;50.850;2.904;2023-04-03T05:23:47;2.10;;;1.23;;
21213;SDS011;10764;50.850;2.904;2023-04-03T05:26:13;1.40;;;1.10;;
21213;SDS011;10764;50.850;2.904;2023-04-03T05:28:42;2.10;;;1.40;;
21213;SDS011;10764;50.850;2.904;2023-04-03T05:31:10;1.55;;;1.13;;
21213;SDS011;10764;50.850;2.904;2023-04-03T05:33:37;1.53;;;1.10;;
21213;SDS011;10764;50.850;2.904;2023-04-03T05:36:07;2.40;;;1.23;;
21213;SDS011;10764;50.850;2.904;2023-04-03T05:38:40;2.05;;;1.10;;
21213;SDS011;10764;50.850;2.904;2023-04-03T05:41:08;2.63;;;1.35;;
21213;SDS011;10764;50.850;2.904;2023-04-03T05:43:35;2.10;;;1.23;;
21213;SDS011;10764;50.850;2.904;2023-04-03T05:46:09;2.20;;;1.27;;
21213;SDS011;10764;50.850;2.904;2023-04-03T05:48:38;1.92;;;1.30;;
21213;SDS011;10764;50.850;2.904;2023-04-03T05:51:06;2.00;;;1.10;;
21213;SDS011;10764;50.850;2.904;2023-04-03T05:53:35;6.05;;;1.25;;
21213;SDS011;10764;50.850;2.904;2023-04-03T05:56:06;2.55;;;1.05;;
21213;SDS011;10764;50.850;2.904;2023-04-03T05:58:37;1.90;;;1.10;;
21213;SDS011;10764;50.850;2.904;2023-04-03T06:01:04;2.08;;;1.17;;
21213;SDS011;10764;50.850;2.904;2023-04-03T06:03:31;2.00;;;1.00;;
21213;SDS011;10764;50.850;2.904;2023-04-03T06:05:59;1.40;;;1.27;;
21213;SDS011;10764;50.850;2.904;2023-04-03T06:08:28;3.03;;;1.00;;
21213;SDS011;10764;50.850;2.904;2023-04-03T06:10:56;1.88;;;1.20;;
21213;SDS011;10764;50.850;2.904;2023-04-03T06:13:23;1.85;;;1.00;;
21213;SDS011;10764;50.850;2.904;2023-04-03T06:15:50;1.55;;;1.10;;
21213;SDS011;10764;50.850;2.904;2023-04-03T06:18:17;2.15;;;1.08;;
21213;SDS011;10764;50.850;2.904;2023-04-03T06:20:44;1.90;;;1.08;;
21213;SDS011;10764;50.850;2.904;2023-04-03T06:23:12;1.80;;;1.00;;
21213;SDS011;10764;50.850;2.904;2023-04-03T06:25:38;1.85;;;1.05;;
21213;SDS011;10764;50.850;2.904;2023-04-03T06:28:06;2.38;;;1.17;;
21213;SDS011;10764;50.850;2.904;2023-04-03T06:30:35;4.75;;;1.27;;
21213;SDS011;10764;50.850;2.904;2023-04-03T06:33:03;4.60;;;1.10;;
21213;SDS011;10764;50.850;2.904;2023-04-03T06:35:30;3.17;;;1.10;;
21213;SDS011;10764;50.850;2.904;2023-04-03T06:37:57;2.30;;;1.10;;
21213;SDS011;10764;50.850;2.904;2023-04-03T06:40:24;3.88;;;1.20;;
21213;SDS011;10764;50.850;2.904;2023-04-03T06:42:52;2.00;;;1.10;;
21213;SDS011;10764;50.850;2.904;2023-04-03T06:45:19;2.88;;;1.25;;
21213;SDS011;10764;50.850;2.904;2023-04-03T06:47:46;3.00;;;1.00;;
21213;SDS011;10764;50.850;2.904;2023-04-03T06:50:13;3.20;;;1.30;;
21213;SDS011;10764;50.850;2.904;2023-04-03T06:52:41;6.03;;;1.40;;
21213;SDS011;10764;50.850;2.904;2023-04-03T06:55:08;5.72;;;1.50;;
21213;SDS011;10764;50.850;2.904;2023-04-03T06:57:35;4.05;;;1.50;;
21213;SDS011;10764;50.850;2.904;2023-04-03T07:00:03;4.72;;;1.33;;
21213;SDS011;10764;50.850;2.904;2023-04-03T07:02:31;4.25;;;1.20;;
21213;SDS011;10764;50.850;2.904;2023-04-03T07:04:58;2.67;;;1.17;;
21213;SDS011;10764;50.850;2.904;2023-04-03T07:07:25;4.80;;;1.38;;
21213;SDS011;10764;50.850;2.904;2023-04-03T07:09:52;6.72;;;1.52;;
21213;SDS011;10764;50.850;2.904;2023-04-03T07:12:19;9.52;;;1.70;;
21213;SDS011;10764;50.850;2.904;2023-04-03T07:14:46;8.45;;;1.48;;
21213;SDS011;10764;50.850;2.904;2023-04-03T07:17:13;10.65;;;1.40;;
21213;SDS011;10764;50.850;2.904;2023-04-03T07:19:40;7.97;;;1.65;;
21213;SDS011;10764;50.850;2.904;2023-04-03T07:22:07;6.03;;;1.50;;
21213;SDS011;10764;50.850;2.904;2023-04-03T07:24:34;7.57;;;1.65;;
21213;SDS011;10764;50.850;2.904;2023-04-03T07:27:02;9.65;;;1.40;;
21213;SDS011;10764;50.850;2.904;2023-04-03T07:29:29;5.57;;;1.40;;
21213;SDS011;10764;50.850;2.904;2023-04-03T07:31:59;49.72;;;3.67;;
21213;SDS011;10764;50.850;2.904;2023-04-03T07:34:26;55.47;;;3.60;;
21213;SDS011;10764;50.850;2.904;2023-04-03T07:36:53;52.53;;;3.30;;
21213;SDS011;10764;50.850;2.904;2023-04-03T07:39:20;23.90;;;2.35;;
21213;SDS011;10764;50.850;2.904;2023-04-03T07:41:46;28.42;;;2.13;;
21213;SDS011;10764;50.850;2.904;2023-04-03T07:44:13;22.67;;;2.42;;
21213;SDS011;10764;50.850;2.904;2023-04-03T07:46:40;14.30;;;2.03;;
21213;SDS011;10764;50.850;2.904;2023-04-03T07:49:08;10.27;;;1.65;;
21213;SDS011;10764;50.850;2.904;2023-04-03T07:51:35;9.65;;;1.83;;
21213;SDS011;10764;50.850;2.904;2023-04-03T07:54:02;7.05;;;1.35;;
21213;SDS011;10764;50.850;2.904;2023-04-03T07:56:31;9.43;;;1.50;;
21213;SDS011;10764;50.850;2.904;2023-04-03T07:58:58;36.28;;;2.78;;
21213;SDS011;10764;50.850;2.904;2023-04-03T08:01:25;33.78;;;2.67;;
21213;SDS011;10764;50.850;2.904;2023-04-03T08:03:52;35.03;;;2.70;;
21213;SDS011;10764;50.850;2.904;2023-04-03T08:06:19;18.55;;;2.13;;
21213;SDS011;10764;50.850;2.904;2023-04-03T08:08:58;23.02;;;2.10;;
21213;SDS011;10764;50.850;2.904;2023-04-03T08:11:25;16.35;;;2.05;;
21213;SDS011;10764;50.850;2.904;2023-04-03T08:13:52;16.42;;;2.33;;
21213;SDS011;10764;50.850;2.904;2023-04-03T08:16:20;18.77;;;1.83;;
21213;SDS011;10764;50.850;2.904;2023-04-03T08:18:49;15.23;;;1.80;;
21213;SDS011;10764;50.850;2.904;2023-04-03T08:21:17;13.38;;;1.60;;
21213;SDS011;10764;50.850;2.904;2023-04-03T08:23:44;11.88;;;1.67;;
21213;SDS011;10764;50.850;2.904;2023-04-03T08:26:14;16.90;;;1.93;;
21213;SDS011;10764;50.850;2.904;2023-04-03T08:28:43;15.73;;;1.80;;
21213;SDS011;10764;50.850;2.904;2023-04-03T08:31:11;13.95;;;1.83;;
21213;SDS011;10764;50.850;2.904;2023-04-03T08:33:43;14.73;;;2.03;;
21213;SDS011;10764;50.850;2.904;2023-04-03T08:36:21;17.45;;;2.78;;
21213;SDS011;10764;50.850;2.904;2023-04-03T08:38:50;12.80;;;2.20;;
21213;SDS011;10764;50.850;2.904;2023-04-03T08:46:39;18.67;;;2.33;;
21213;SDS011;10764;50.850;2.904;2023-04-03T08:55:06;15.65;;;2.63;;
21213;SDS011;10764;50.850;2.904;2023-04-03T08:57:44;17.75;;;2.50;;
21213;SDS011;10764;50.850;2.904;2023-04-03T09:00:19;12.10;;;2.15;;
21213;SDS011;10764;50.850;2.904;2023-04-03T09:02:50;13.30;;;2.40;;
21213;SDS011;10764;50.850;2.904;2023-04-03T09:05:42;12.87;;;2.20;;
21213;SDS011;10764;50.850;2.904;2023-04-03T09:10:51;10.07;;;2.50;;
21213;SDS011;10764;50.850;2.904;2023-04-03T09:13:27;11.95;;;1.85;;
21213;SDS011;10764;50.850;2.904;2023-04-03T09:16:06;10.82;;;2.05;;
21213;SDS011;10764;50.850;2.904;2023-04-03T09:19:11;10.82;;;1.70;;
21213;SDS011;10764;50.850;2.904;2023-04-03T09:21:48;9.00;;;1.75;;
21213;SDS011;10764;50.850;2.904;2023-04-03T09:24:15;10.50;;;1.80;;
21213;SDS011;10764;50.850;2.904;2023-04-03T09:27:01;7.82;;;1.67;;
21213;SDS011;10764;50.850;2.904;2023-04-03T09:29:31;12.57;;;1.75;;
21213;SDS011;10764;50.850;2.904;2023-04-03T09:34:53;5.70;;;1.80;;
21213;SDS011;10764;50.850;2.904;2023-04-03T09:37:34;8.75;;;1.67;;
21213;SDS011;10764;50.850;2.904;2023-04-03T09:42:57;7.15;;;1.88;;
21213;SDS011;10764;50.850;2.904;2023-04-03T09:45:31;6.60;;;1.42;;
21213;SDS011;10764;50.850;2.904;2023-04-03T09:48:07;4.75;;;1.48;;
21213;SDS011;10764;50.850;2.904;2023-04-03T09:53:41;4.80;;;1.30;;
21213;SDS011;10764;50.850;2.904;2023-04-03T09:58:45;7.63;;;1.70;;
21213;SDS011;10764;50.850;2.904;2023-04-03T10:04:09;6.32;;;1.55;;
21213;SDS011;10764;50.850;2.904;2023-04-03T10:06:42;5.93;;;1.27;;
21213;SDS011;10764;50.850;2.904;2023-04-03T10:09:34;4.10;;;1.30;;
21213;SDS011;10764;50.850;2.904;2023-04-03T10:12:07;4.67;;;1.67;;
21213;SDS011;10764;50.850;2.904;2023-04-03T10:14:38;4.50;;;1.40;;
21213;SDS011;10764;50.850;2.904;2023-04-03T10:20:08;4.38;;;1.27;;
21213;SDS011;10764;50.850;2.904;2023-04-03T10:25:59;6.72;;;1.23;;
21213;SDS011;10764;50.850;2.904;2023-04-03T10:31:37;5.35;;;1.27;;
21213;SDS011;10764;50.850;2.904;2023-04-03T10:37:01;3.50;;;1.10;;
21213;SDS011;10764;50.850;2.904;2023-04-03T10:39:53;3.03;;;1.20;;
21213;SDS011;10764;50.850;2.904;2023-04-03T10:45:21;3.73;;;1.07;;
21213;SDS011;10764;50.850;2.904;2023-04-03T10:50:31;3.83;;;1.13;;
21213;SDS011;10764;50.850;2.904;2023-04-03T10:56:03;3.17;;;1.00;;
21213;SDS011;10764;50.850;2.904;2023-04-03T10:58:57;3.63;;;1.02;;
21213;SDS011;10764;50.850;2.904;2023-04-03T11:01:26;3.65;;;1.10;;
21213;SDS011;10764;50.850;2.904;2023-04-03T11:03:59;3.80;;;1.30;;
21213;SDS011;10764;50.850;2.904;2023-04-03T11:06:49;3.90;;;1.10;;
21213;SDS011;10764;50.850;2.904;2023-04-03T11:11:52;6.28;;;1.10;;
21213;SDS011;10764;50.850;2.904;2023-04-03T11:14:39;3.95;;;1.02;;
21213;SDS011;10764;50.850;2.904;2023-04-03T11:19:47;4.90;;;0.80;;
21213;SDS011;10764;50.850;2.904;2023-04-03T11:25:03;2.03;;;0.80;;
21213;SDS011;10764;50.850;2.904;2023-04-03T11:27:43;3.30;;;0.90;;
21213;SDS011;10764;50.850;2.904;2023-04-03T11:30:17;3.80;;;0.90;;
21213;SDS011;10764;50.850;2.904;2023-04-03T11:35:29;1.92;;;0.80;;
21213;SDS011;10764;50.850;2.904;2023-04-03T11:37:58;3.80;;;0.90;;
21213;SDS011;10764;50.850;2.904;2023-04-03T11:40:28;3.83;;;0.90;;
21213;SDS011;10764;50.850;2.904;2023-04-03T11:48:02;2.42;;;0.85;;
21213;SDS011;10764;50.850;2.904;2023-04-03T11:50:49;2.20;;;0.80;;
21213;SDS011;10764;50.850;2.904;2023-04-03T11:55:44;2.33;;;0.70;;
21213;SDS011;10764;50.850;2.904;2023-04-03T11:58:12;2.58;;;0.90;;
21213;SDS011;10764;50.850;2.904;2023-04-03T12:16:20;2.25;;;0.80;;
21213;SDS011;10764;50.850;2.904;2023-04-03T12:21:24;3.28;;;1.05;;
21213;SDS011;10764;50.850;2.904;2023-04-03T12:37:41;3.50;;;0.70;;
21213;SDS011;10764;50.850;2.904;2023-04-03T12:46:15;2.50;;;0.77;;
21213;SDS011;10764;50.850;2.904;2023-04-03T12:51:37;1.92;;;0.57;;
21213;SDS011;10764;50.850;2.904;2023-04-03T12:54:18;1.27;;;0.60;;
21213;SDS011;10764;50.850;2.904;2023-04-03T12:56:48;2.70;;;0.65;;
21213;SDS011;10764;50.850;2.904;2023-04-03T12:59:22;1.58;;;0.57;;
21213;SDS011;10764;50.850;2.904;2023-04-03T13:02:00;2.22;;;0.70;;
21213;SDS011;10764;50.850;2.904;2023-04-03T13:04:28;2.20;;;0.50;;
21213;SDS011;10764;50.850;2.904;2023-04-03T13:06:56;1.60;;;0.50;;
21213;SDS011;10764;50.850;2.904;2023-04-03T13:09:28;1.25;;;0.55;;
21213;SDS011;10764;50.850;2.904;2023-04-03T13:11:58;2.35;;;0.55;;
21213;SDS011;10764;50.850;2.904;2023-04-03T13:14:27;1.63;;;0.50;;
21213;SDS011;10764;50.850;2.904;2023-04-03T13:17:15;1.63;;;0.70;;
21213;SDS011;10764;50.850;2.904;2023-04-03T13:19:43;1.50;;;0.40;;
21213;SDS011;10764;50.850;2.904;2023-04-03T13:24:58;1.50;;;0.60;;
21213;SDS011;10764;50.850;2.904;2023-04-03T13:27:29;1.48;;;0.50;;
21213;SDS011;10764;50.850;2.904;2023-04-03T13:29:57;1.95;;;0.70;;
21213;SDS011;10764;50.850;2.904;2023-04-03T13:32:28;1.67;;;0.50;;
21213;SDS011;10764;50.850;2.904;2023-04-03T13:34:57;2.05;;;0.50;;
21213;SDS011;10764;50.850;2.904;2023-04-03T13:37:52;1.88;;;0.65;;
21213;SDS011;10764;50.850;2.904;2023-04-03T13:40:21;1.88;;;0.50;;
21213;SDS011;10764;50.850;2.904;2023-04-03T13:42:58;1.27;;;0.50;;
21213;SDS011;10764;50.850;2.904;2023-04-03T13:45:30;0.98;;;0.40;;
21213;SDS011;10764;50.850;2.904;2023-04-03T13:48:07;2.63;;;0.43;;
21213;SDS011;10764;50.850;2.904;2023-04-03T13:50:56;1.35;;;0.50;;
21213;SDS011;10764;50.850;2.904;2023-04-03T13:53:29;1.25;;;0.60;;
21213;SDS011;10764;50.850;2.904;2023-04-03T13:56:05;1.15;;;0.73;;
21213;SDS011;10764;50.850;2.904;2023-04-03T13:58:34;2.33;;;0.40;;
21213;SDS011;10764;50.850;2.904;2023-04-03T14:06:10;2.08;;;0.70;;
21213;SDS011;10764;50.850;2.904;2023-04-03T14:08:42;1.85;;;0.50;;
21213;SDS011;10764;50.850;2.904;2023-04-03T14:11:13;1.67;;;0.50;;
21213;SDS011;10764;50.850;2.904;2023-04-03T14:13:42;1.13;;;0.50;;
21213;SDS011;10764;50.850;2.904;2023-04-03T14:16:21;2.53;;;0.50;;
21213;SDS011;10764;50.850;2.904;2023-04-03T14:18:49;4.15;;;0.45;;
21213;SDS011;10764;50.850;2.904;2023-04-03T14:21:18;1.45;;;0.50;;
21213;SDS011;10764;50.850;2.904;2023-04-03T14:23:46;1.73;;;0.50;;
21213;SDS011;10764;50.850;2.904;2023-04-03T14:26:14;1.13;;;0.50;;
21213;SDS011;10764;50.850;2.904;2023-04-03T14:28:47;3.05;;;0.40;;
21213;SDS011;10764;50.850;2.904;2023-04-03T14:31:17;1.58;;;0.60;;
21213;SDS011;10764;50.850;2.904;2023-04-03T14:33:45;1.88;;;0.45;;
21213;SDS011;10764;50.850;2.904;2023-04-03T14:38:39;1.90;;;0.57;;
21213;SDS011;10764;50.850;2.904;2023-04-03T14:41:07;1.65;;;0.52;;
21213;SDS011;10764;50.850;2.904;2023-04-03T14:43:42;2.10;;;0.43;;
21213;SDS011;10764;50.850;2.904;2023-04-03T14:46:14;1.73;;;0.40;;
21213;SDS011;10764;50.850;2.904;2023-04-03T14:49:14;0.60;;;0.40;;
21213;SDS011;10764;50.850;2.904;2023-04-03T14:51:44;2.45;;;0.50;;
21213;SDS011;10764;50.850;2.904;2023-04-03T14:54:16;1.45;;;0.50;;
21213;SDS011;10764;50.850;2.904;2023-04-03T14:56:45;0.90;;;0.40;;
21213;SDS011;10764;50.850;2.904;2023-04-03T14:59:12;2.20;;;0.60;;
21213;SDS011;10764;50.850;2.904;2023-04-03T15:01:40;1.80;;;0.60;;
21213;SDS011;10764;50.850;2.904;2023-04-03T15:04:14;1.05;;;0.60;;
21213;SDS011;10764;50.850;2.904;2023-04-03T15:06:42;1.73;;;0.60;;
21213;SDS011;10764;50.850;2.904;2023-04-03T15:09:28;1.27;;;0.57;;
21213;SDS011;10764;50.850;2.904;2023-04-03T15:11:55;1.40;;;0.30;;
21213;SDS011;10764;50.850;2.904;2023-04-03T15:14:22;2.40;;;0.70;;
21213;SDS011;10764;50.850;2.904;2023-04-03T15:17:05;1.10;;;0.50;;
21213;SDS011;10764;50.850;2.904;2023-04-03T15:19:38;1.00;;;0.47;;
21213;SDS011;10764;50.850;2.904;2023-04-03T15:22:05;1.77;;;0.55;;
21213;SDS011;10764;50.850;2.904;2023-04-03T15:24:32;1.13;;;0.50;;
21213;SDS011;10764;50.850;2.904;2023-04-03T15:26:59;1.55;;;0.30;;
21213;SDS011;10764;50.850;2.904;2023-04-03T15:29:27;1.13;;;0.33;;
21213;SDS011;10764;50.850;2.904;2023-04-03T15:31:54;1.30;;;0.68;;
21213;SDS011;10764;50.850;2.904;2023-04-03T15:34:21;1.50;;;0.40;;
21213;SDS011;10764;50.850;2.904;2023-04-03T15:36:49;0.90;;;0.40;;
21213;SDS011;10764;50.850;2.904;2023-04-03T15:39:19;2.00;;;0.40;;
21213;SDS011;10764;50.850;2.904;2023-04-03T15:41:46;1.58;;;0.40;;
21213;SDS011;10764;50.850;2.904;2023-04-03T15:44:13;1.50;;;0.40;;
21213;SDS011;10764;50.850;2.904;2023-04-03T15:46:44;2.10;;;0.40;;
21213;SDS011;10764;50.850;2.904;2023-04-03T15:49:12;1.00;;;0.47;;
21213;SDS011;10764;50.850;2.904;2023-04-03T15:51:39;1.50;;;0.40;;
21213;SDS011;10764;50.850;2.904;2023-04-03T15:54:06;0.95;;;0.30;;
21213;SDS011;10764;50.850;2.904;2023-04-03T15:56:33;1.88;;;0.60;;
21213;SDS011;10764;50.850;2.904;2023-04-03T15:59:00;0.93;;;0.40;;
21213;SDS011;10764;50.850;2.904;2023-04-03T16:01:27;2.42;;;0.50;;
21213;SDS011;10764;50.850;2.904;2023-04-03T16:03:54;1.70;;;0.40;;
21213;SDS011;10764;50.850;2.904;2023-04-03T16:06:21;2.22;;;0.57;;
21213;SDS011;10764;50.850;2.904;2023-04-03T16:08:50;1.17;;;0.40;;
21213;SDS011;10764;50.850;2.904;2023-04-03T16:11:17;0.90;;;0.40;;
21213;SDS011;10764;50.850;2.904;2023-04-03T16:13:44;0.98;;;0.40;;
21213;SDS011;10764;50.850;2.904;2023-04-03T16:16:11;0.68;;;0.30;;
21213;SDS011;10764;50.850;2.904;2023-04-03T16:18:38;1.20;;;0.40;;
21213;SDS011;10764;50.850;2.904;2023-04-03T16:21:05;1.15;;;0.43;;
21213;SDS011;10764;50.850;2.904;2023-04-03T16:23:34;1.38;;;0.50;;
21213;SDS011;10764;50.850;2.904;2023-04-03T16:26:01;1.90;;;0.50;;
21213;SDS011;10764;50.850;2.904;2023-04-03T16:28:27;1.55;;;0.40;;
21213;SDS011;10764;50.850;2.904;2023-04-03T16:30:54;1.38;;;0.40;;
21213;SDS011;10764;50.850;2.904;2023-04-03T16:33:21;1.40;;;0.40;;
21213;SDS011;10764;50.850;2.904;2023-04-03T16:35:48;0.55;;;0.30;;
21213;SDS011;10764;50.850;2.904;2023-04-03T16:38:16;2.00;;;0.40;;
21213;SDS011;10764;50.850;2.904;2023-04-03T16:40:46;0.82;;;0.30;;
21213;SDS011;10764;50.850;2.904;2023-04-03T16:43:15;1.30;;;0.40;;
21213;SDS011;10764;50.850;2.904;2023-04-03T16:45:42;1.38;;;0.50;;
21213;SDS011;10764;50.850;2.904;2023-04-03T16:48:08;1.17;;;0.40;;
21213;SDS011;10764;50.850;2.904;2023-04-03T16:50:36;1.20;;;0.55;;
21213;SDS011;10764;50.850;2.904;2023-04-03T16:53:03;0.98;;;0.45;;
21213;SDS011;10764;50.850;2.904;2023-04-03T16:55:30;0.95;;;0.38;;
21213;SDS011;10764;50.850;2.904;2023-04-03T16:57:57;1.23;;;0.38;;
21213;SDS011;10764;50.850;2.904;2023-04-03T17:00:24;2.65;;;0.40;;
21213;SDS011;10764;50.850;2.904;2023-04-03T17:02:51;2.22;;;0.60;;